createdAt,value
2018-11-20T00:01:03.976Z,12.30
2018-11-20T00:03:58.752Z,11.20
2018-11-20T00:06:50.397Z,11.53
2018-11-20T00:09:39.287Z,11.40
2018-11-20T00:12:39.974Z,11.68
2018-11-20T00:15:21.049Z,12.37
2018-11-20T00:18:12.870Z,12.30
2018-11-20T00:21:03.370Z,12.82
2018-11-20T00:23:48.073Z,12.23
2018-11-20T00:26:35.337Z,12.63
2018-11-20T00:29:23.495Z,13.78
2018-11-20T00:32:07.135Z,13.48
2018-11-20T00:34:54.399Z,14.53
2018-11-20T00:37:55.268Z,12.55
2018-11-20T00:40:46.738Z,12.98
2018-11-20T00:43:33.947Z,12.58
2018-11-20T00:46:22.080Z,13.10
2018-11-20T00:49:12.655Z,11.75
2018-11-20T00:52:00.382Z,12.80
2018-11-20T00:54:46.552Z,14.03
2018-11-20T00:57:35.421Z,12.65
2018-11-20T01:00:27.486Z,13.32
2018-11-20T01:03:16.327Z,13.25
2018-11-20T01:06:08.309Z,14.00
2018-11-20T01:09:07.552Z,14.07
2018-11-20T01:11:59.233Z,13.60
2018-11-20T01:14:51.301Z,13.50
2018-11-20T01:17:28.620Z,13.78
2018-11-20T01:20:17.457Z,13.65
2018-11-20T01:23:04.971Z,13.80
2018-11-20T01:26:02.914Z,14.07
2018-11-20T01:29:00.377Z,15.00
2018-11-20T01:31:42.114Z,14.90
2018-11-20T01:34:42.954Z,14.53
2018-11-20T01:39:18.926Z,15.60
2018-11-20T01:42:04.808Z,15.98
2018-11-20T01:44:58.619Z,16.17
2018-11-20T01:47:52.555Z,16.10
2018-11-20T01:50:40.612Z,15.95
2018-11-20T01:53:31.388Z,15.72
2018-11-20T01:56:07.530Z,17.23
2018-11-20T01:58:52.139Z,16.48
2018-11-20T02:01:34.639Z,17.20
2018-11-20T02:04:31.824Z,18.60
2018-11-20T02:07:35.469Z,18.65
2018-11-20T02:10:29.597Z,18.13
2018-11-20T02:13:55.187Z,18.00
2018-11-20T02:16:59.454Z,17.75
2018-11-20T02:19:47.472Z,16.60
2018-11-20T02:22:50.595Z,18.05
2018-11-20T02:25:37.780Z,16.82
2018-11-20T02:28:24.549Z,18.10
2018-11-20T02:31:11.202Z,17.60
2018-11-20T02:33:57.947Z,16.87
2018-11-20T02:36:44.650Z,18.00
2018-11-20T02:39:31.265Z,17.27
2018-11-20T02:42:18.290Z,16.90
2018-11-20T02:45:05.112Z,18.05
2018-11-20T02:48:08.537Z,18.10
2018-11-20T02:51:02.326Z,19.87
2018-11-20T02:53:48.973Z,17.87
2018-11-20T02:56:29.652Z,16.70
2018-11-20T02:59:29.480Z,17.87
2018-11-20T03:02:11.029Z,18.02
2018-11-20T03:05:01.884Z,19.57
2018-11-20T03:07:48.596Z,18.70
2018-11-20T03:10:28.817Z,18.67
2018-11-20T03:13:15.729Z,18.65
2018-11-20T03:16:18.693Z,19.60
2018-11-20T03:19:09.537Z,18.60
2018-11-20T03:22:09.951Z,19.73
2018-11-20T03:24:49.904Z,19.30
2018-11-20T03:27:35.883Z,18.48
2018-11-20T03:31:09.606Z,20.50
2018-11-20T03:33:58.178Z,21.37
2018-11-20T03:36:45.162Z,21.40
2018-11-20T03:39:32.378Z,22.27
2018-11-20T03:42:26.339Z,21.82
2018-11-20T03:45:13.041Z,22.52
2018-11-20T03:48:00.026Z,21.70
2018-11-20T03:50:46.964Z,21.12
2018-11-20T03:53:32.643Z,22.02
2018-11-20T03:56:29.413Z,22.70
2018-11-20T03:59:16.306Z,22.40
2018-11-20T04:01:52.299Z,21.60
2018-11-20T04:04:40.328Z,23.00
2018-11-20T04:07:25.985Z,23.05
2018-11-20T04:10:03.076Z,22.42
2018-11-20T04:12:39.417Z,21.73
2018-11-20T04:15:33.712Z,21.93
2018-11-20T04:18:24.681Z,22.45
2018-11-20T04:21:12.730Z,21.40
2018-11-20T04:24:16.044Z,21.73
2018-11-20T04:27:16.288Z,21.90
2018-11-20T04:29:55.909Z,24.18
2018-11-20T04:32:35.059Z,20.40
2018-11-20T04:35:24.028Z,21.42
2018-11-20T04:38:24.092Z,20.93
2018-11-20T04:41:10.877Z,22.37
2018-11-20T04:44:01.512Z,21.93
2018-11-20T04:46:56.765Z,21.75
2018-11-20T04:49:38.187Z,22.30
2018-11-20T04:52:38.340Z,22.20
2018-11-20T04:55:29.296Z,22.13
2018-11-20T04:58:14.035Z,21.52
2018-11-20T05:01:01.110Z,21.40
2018-11-20T05:03:52.213Z,22.10
2018-11-20T05:06:45.274Z,21.07
2018-11-20T05:09:30.808Z,21.50
2018-11-20T05:12:13.915Z,21.48
2018-11-20T05:14:53.552Z,21.77
2018-11-20T05:17:47.499Z,21.30
2018-11-20T05:20:34.337Z,21.13
2018-11-20T05:23:22.367Z,19.10
2018-11-20T05:26:13.075Z,20.40
2018-11-20T05:29:10.214Z,20.60
2018-11-20T05:31:52.414Z,20.93
2018-11-20T05:34:46.192Z,19.92
2018-11-20T05:37:23.879Z,21.10
2018-11-20T05:40:10.717Z,20.63
2018-11-20T05:42:57.443Z,21.27
2018-11-20T05:45:44.297Z,20.25
2018-11-20T05:48:31.152Z,20.60
2018-11-20T05:51:25.575Z,19.40
2018-11-20T05:54:12.645Z,20.85
2018-11-20T05:56:51.578Z,20.30
2018-11-20T05:59:38.665Z,19.70
2018-11-20T06:02:24.271Z,20.80
2018-11-20T06:05:30.214Z,21.30
2018-11-20T06:08:21.281Z,21.30
2018-11-20T06:11:08.407Z,18.07
2018-11-20T06:13:57.768Z,20.50
2018-11-20T06:17:00.908Z,21.00
2018-11-20T06:20:05.226Z,20.05
2018-11-20T06:22:52.329Z,20.68
2018-11-20T06:25:45.709Z,20.13
2018-11-20T06:28:52.517Z,20.00
2018-11-20T06:31:58.776Z,19.98
2018-11-20T06:34:55.749Z,19.60
2018-11-20T06:37:42.191Z,20.27
2018-11-20T06:40:28.938Z,19.95
2018-11-20T06:43:15.641Z,19.37
2018-11-20T06:46:07.158Z,19.48
2018-11-20T06:48:54.226Z,20.70
2018-11-20T06:51:37.141Z,19.30
2018-11-20T06:54:23.881Z,19.87
2018-11-20T06:57:06.161Z,19.37
2018-11-20T06:59:52.305Z,19.73
2018-11-20T07:02:45.298Z,19.80
2018-11-20T07:05:36.483Z,20.00
2018-11-20T07:08:22.242Z,18.77
2018-11-20T07:11:06.398Z,20.60
2018-11-20T07:14:00.816Z,19.90
2018-11-20T07:17:06.307Z,21.03
2018-11-20T07:20:15.004Z,20.20
2018-11-20T07:23:05.570Z,20.50
2018-11-20T07:25:52.036Z,20.62
2018-11-20T07:28:38.920Z,21.33
2018-11-20T07:31:27.051Z,22.87
2018-11-20T07:34:12.832Z,21.82
2018-11-20T07:37:07.152Z,22.32
2018-11-20T07:39:55.067Z,22.62
2018-11-20T07:42:52.875Z,22.95
2018-11-20T07:45:39.498Z,23.40
2018-11-20T07:48:30.854Z,24.40
2018-11-20T07:51:23.513Z,23.50
2018-11-20T07:54:10.499Z,23.70
2018-11-20T07:56:57.083Z,24.12
2018-11-20T07:59:45.298Z,23.98
2018-11-20T08:02:32.428Z,24.25
2018-11-20T08:05:39.042Z,23.30
2018-11-20T08:08:21.206Z,26.00
2018-11-20T08:11:15.383Z,26.73
2018-11-20T08:14:04.922Z,27.67
2018-11-20T08:16:51.724Z,27.87
2018-11-20T08:19:39.765Z,28.15
2018-11-20T08:22:41.517Z,29.87
2018-11-20T08:25:47.994Z,29.10
2018-11-20T08:28:36.127Z,28.85
2018-11-20T08:31:39.180Z,27.50
2018-11-20T08:34:27.232Z,28.87
2018-11-20T08:37:13.890Z,25.50
2018-11-20T08:40:00.977Z,25.65
2018-11-20T08:42:49.040Z,25.05
2018-11-20T08:45:30.071Z,25.82
2018-11-20T08:48:12.353Z,24.82
2018-11-20T08:50:59.450Z,25.50
2018-11-20T08:53:47.646Z,25.05
2018-11-20T08:56:34.553Z,22.95
2018-11-20T08:59:11.960Z,23.18
2018-11-20T09:01:58.928Z,23.57
2018-11-20T09:04:46.157Z,22.82
2018-11-20T09:07:52.314Z,23.32
2018-11-20T09:10:55.731Z,21.93
2018-11-20T09:13:49.549Z,22.73
2018-11-20T09:16:47.922Z,23.87
2018-11-20T09:19:30.826Z,24.73
2018-11-20T09:22:21.645Z,24.80
2018-11-20T09:24:59.319Z,24.20
2018-11-20T09:27:46.147Z,24.95
2018-11-20T09:30:33.151Z,24.45
2018-11-20T09:33:24.171Z,24.18
2018-11-20T09:36:16.908Z,24.00
2018-11-20T09:39:08.428Z,25.68
2018-11-20T09:41:55.479Z,25.30
2018-11-20T09:45:11.126Z,24.23
2018-11-20T09:48:05.613Z,23.67
2018-11-20T09:50:53.089Z,24.27
2018-11-20T09:53:40.030Z,24.35
2018-11-20T09:56:28.097Z,24.57
2018-11-20T09:59:12.714Z,24.32
2018-11-20T10:02:12.866Z,23.00
2018-11-20T10:05:03.781Z,23.65
2018-11-20T10:07:50.637Z,23.47
2018-11-20T10:10:51.101Z,22.90
2018-11-20T10:13:54.650Z,23.07
2018-11-20T10:16:34.258Z,23.23
2018-11-20T10:19:37.561Z,23.15
2018-11-20T10:22:24.602Z,22.45
2018-11-20T10:25:15.671Z,22.10
2018-11-20T10:28:13.029Z,21.80
2018-11-20T10:31:13.042Z,21.20
2018-11-20T10:34:19.648Z,22.57
2018-11-20T10:37:03.151Z,19.95
2018-11-20T10:39:50.541Z,20.60
2018-11-20T10:42:35.229Z,20.47
2018-11-20T10:45:30.538Z,20.93
2018-11-20T10:48:13.973Z,19.93
2018-11-20T10:51:01.168Z,20.60
2018-11-20T10:54:01.533Z,20.75
2018-11-20T10:56:52.348Z,21.77
2018-11-20T10:59:58.622Z,19.97
2018-11-20T11:02:45.661Z,21.37
2018-11-20T11:05:52.136Z,21.07
2018-11-20T11:08:40.246Z,19.92
2018-11-20T11:11:33.928Z,20.97
2018-11-20T11:14:25.226Z,20.65
2018-11-20T11:17:11.922Z,21.52
2018-11-20T11:20:01.478Z,21.40
2018-11-20T11:22:49.537Z,21.95
2018-11-20T11:25:34.049Z,22.77
2018-11-20T11:28:31.147Z,21.20
2018-11-20T11:31:32.364Z,20.35
2018-11-20T11:34:20.922Z,21.55
2018-11-20T11:37:18.254Z,20.55
2018-11-20T11:39:52.511Z,20.30
2018-11-20T11:42:39.320Z,20.77
2018-11-20T11:45:27.355Z,20.70
2018-11-20T11:48:16.972Z,20.82
2018-11-20T11:51:05.417Z,21.23
2018-11-20T11:54:00.066Z,21.73
2018-11-20T11:56:57.156Z,21.30
2018-11-20T11:59:51.222Z,21.50
2018-11-20T12:05:28.516Z,22.20
2018-11-20T12:08:21.981Z,20.80
2018-11-20T12:11:12.987Z,20.92
2018-11-20T12:14:19.396Z,20.03
2018-11-20T12:17:17.241Z,21.00
2018-11-20T12:20:04.233Z,21.67
2018-11-20T12:22:48.093Z,22.50
2018-11-20T12:25:51.689Z,20.23
2018-11-20T12:28:43.256Z,22.30
2018-11-20T12:31:37.130Z,29.77
2018-11-20T12:34:23.868Z,24.30
2018-11-20T12:37:13.863Z,22.40
2018-11-20T12:40:00.635Z,22.70
2018-11-20T12:43:01.641Z,20.97
2018-11-20T12:46:01.479Z,20.97
2018-11-20T12:48:48.168Z,21.25
2018-11-20T12:51:48.833Z,20.70
2018-11-20T12:54:39.178Z,19.90
2018-11-20T12:57:42.459Z,20.30
2018-11-20T13:00:29.535Z,21.73
2018-11-20T13:03:32.986Z,19.80
2018-11-20T13:06:12.395Z,21.03
2018-11-20T13:09:03.297Z,21.80
2018-11-20T13:11:54.028Z,20.88
2018-11-20T13:14:42.144Z,22.30
2018-11-20T13:17:40.726Z,26.30
2018-11-20T13:20:29.500Z,29.05
2018-11-20T13:23:21.314Z,30.55
2018-11-20T13:26:13.316Z,25.93
2018-11-20T13:28:50.838Z,27.50
2018-11-20T13:31:37.545Z,28.03
2018-11-20T13:34:21.001Z,24.77
2018-11-20T13:37:04.716Z,26.67
2018-11-20T13:40:11.070Z,23.80
2018-11-20T13:42:55.516Z,21.30
2018-11-20T13:45:46.943Z,22.43
2018-11-20T13:48:33.750Z,24.57
2018-11-20T13:51:15.231Z,22.77
2018-11-20T13:53:56.515Z,22.57
2018-11-20T13:56:44.638Z,21.70
2018-11-20T13:59:50.816Z,21.63
2018-11-20T14:02:32.309Z,21.07
2018-11-20T14:05:32.622Z,21.77
2018-11-20T14:08:09.603Z,20.97
2018-11-20T14:11:00.696Z,20.80
2018-11-20T14:13:48.716Z,21.87
2018-11-20T14:16:35.618Z,22.67
2018-11-20T14:19:18.310Z,20.73
2018-11-20T14:22:01.813Z,21.17
2018-11-20T14:24:45.477Z,27.67
2018-11-20T14:27:33.485Z,22.98
2018-11-20T14:30:27.617Z,23.00
2018-11-20T14:33:30.690Z,23.02
2018-11-20T14:36:17.754Z,22.25
2018-11-20T14:39:08.683Z,22.80
2018-11-20T14:41:56.794Z,26.37
2018-11-20T14:44:44.855Z,22.98
2018-11-20T14:47:35.690Z,24.30
2018-11-20T14:50:25.039Z,23.70
2018-11-20T14:53:13.073Z,24.20
2018-11-20T14:56:00.206Z,26.03
2018-11-20T14:58:38.071Z,27.45
2018-11-20T15:01:38.251Z,25.90
2018-11-20T15:04:25.301Z,28.10
2018-11-20T15:07:00.936Z,26.35
2018-11-20T15:09:49.369Z,27.00
2018-11-20T15:12:31.595Z,27.80
2018-11-20T15:15:28.931Z,27.60
2018-11-20T15:18:11.062Z,30.62
2018-11-20T15:20:57.899Z,30.40
2018-11-20T15:23:44.324Z,29.92
2018-11-20T15:26:31.530Z,25.37
2018-11-20T15:29:22.578Z,25.30
2018-11-20T15:32:13.524Z,28.83
2018-11-20T15:35:00.626Z,31.53
2018-11-20T15:37:51.966Z,31.90
2018-11-20T15:40:37.551Z,31.07
2018-11-20T15:43:31.607Z,32.30
2018-11-20T15:46:22.954Z,31.20
2018-11-20T15:49:23.653Z,31.80
2018-11-20T15:52:11.555Z,30.64
2018-11-20T15:55:11.421Z,30.00
2018-11-20T15:58:08.579Z,30.72
2018-11-20T16:00:55.442Z,29.87
2018-11-20T16:03:53.239Z,31.95
2018-11-20T16:06:39.917Z,31.90
2018-11-20T16:09:37.389Z,30.95
2018-11-20T16:12:24.454Z,32.60
2018-11-20T16:15:12.537Z,34.03
2018-11-20T16:17:59.471Z,36.60
2018-11-20T16:20:50.246Z,38.17
2018-11-20T16:23:43.760Z,37.87
2018-11-20T16:26:30.758Z,36.43
2018-11-20T16:29:17.796Z,35.27
2018-11-20T16:32:17.933Z,37.63
2018-11-20T16:35:11.929Z,35.13
2018-11-20T16:37:56.799Z,36.08
2018-11-20T16:40:43.644Z,35.75
2018-11-20T16:43:27.797Z,37.53
2018-11-20T16:46:15.132Z,34.50
2018-11-20T16:49:02.281Z,36.67
2018-11-20T16:51:53.100Z,34.33
2018-11-20T16:54:43.929Z,37.20
2018-11-20T16:57:30.680Z,33.23
2018-11-20T17:00:17.737Z,36.30
2018-11-20T17:03:15.215Z,34.13
2018-11-20T17:06:02.276Z,32.53
2018-11-20T17:08:56.539Z,32.73
2018-11-20T17:11:47.434Z,30.97
2018-11-20T17:14:28.616Z,34.78
2018-11-20T17:17:13.241Z,35.33
2018-11-20T17:19:50.539Z,31.10
2018-11-20T17:22:37.620Z,31.16
2018-11-20T17:25:25.182Z,31.97
2018-11-20T17:28:11.924Z,32.13
2018-11-20T17:30:55.736Z,32.93
2018-11-20T17:33:56.192Z,27.97
2018-11-20T17:36:52.709Z,30.30
2018-11-20T17:39:42.011Z,31.12
2018-11-20T17:42:41.517Z,33.07
2018-11-20T17:45:22.679Z,30.68
2018-11-20T17:48:02.183Z,31.17
2018-11-20T17:51:02.462Z,27.67
2018-11-20T17:53:49.430Z,30.27
2018-11-20T17:56:36.440Z,29.45
2018-11-20T17:59:12.975Z,29.20
2018-11-20T18:01:49.867Z,29.30
2018-11-20T18:04:37.891Z,28.90
2018-11-20T18:07:32.151Z,28.47
2018-11-20T18:10:29.162Z,27.05
2018-11-20T18:13:16.436Z,26.10
2018-11-20T18:16:13.832Z,25.93
2018-11-20T18:18:58.589Z,28.27
2018-11-20T18:21:45.456Z,28.23
2018-11-20T18:24:24.492Z,26.70
2018-11-20T18:27:00.990Z,27.70
2018-11-20T18:29:52.080Z,27.70
2018-11-20T18:32:40.885Z,27.50
2018-11-20T18:35:27.351Z,26.68
2018-11-20T18:38:15.142Z,26.35
2018-11-20T18:41:06.733Z,26.17
2018-11-20T18:43:54.797Z,27.35
2018-11-20T18:46:41.461Z,26.15
2018-11-20T18:49:28.363Z,25.00
2018-11-20T18:52:07.029Z,25.10
2018-11-20T18:55:10.211Z,24.63
2018-11-20T18:57:51.248Z,24.80
2018-11-20T19:00:42.287Z,24.72
2018-11-20T19:03:28.985Z,24.63
2018-11-20T19:06:26.400Z,24.83
2018-11-20T19:09:22.067Z,24.80
2018-11-20T19:12:25.400Z,25.15
2018-11-20T19:15:28.718Z,25.30
2018-11-20T19:18:15.536Z,24.50
2018-11-20T19:20:55.066Z,23.30
2018-11-20T19:23:58.059Z,26.77
2018-11-20T19:26:32.694Z,26.07
2018-11-20T19:29:17.452Z,25.97
2018-11-20T19:32:20.745Z,27.67
2018-11-20T19:34:59.884Z,27.07
2018-11-20T19:37:43.707Z,27.10
2018-11-20T19:40:49.910Z,26.70
2018-11-20T19:43:37.262Z,27.53
2018-11-20T19:46:27.629Z,28.23
2018-11-20T19:49:31.499Z,27.00
2018-11-20T19:52:36.062Z,26.93
2018-11-20T19:55:26.023Z,28.65
2018-11-20T19:58:28.537Z,27.47
2018-11-20T20:01:25.396Z,29.27
2018-11-20T20:04:17.727Z,27.60
2018-11-20T20:07:05.875Z,26.70
2018-11-20T20:09:54.285Z,26.83
2018-11-20T20:12:35.450Z,28.33
2018-11-20T20:15:32.885Z,29.18
2018-11-20T20:18:32.117Z,28.30
2018-11-20T20:21:18.697Z,29.63
2018-11-20T20:24:07.757Z,29.72
2018-11-20T20:26:59.447Z,28.62
2018-11-20T20:29:46.755Z,30.23
2018-11-20T20:32:46.621Z,30.40
2018-11-20T20:35:39.315Z,30.90
2018-11-20T20:38:42.986Z,31.07
2018-11-20T20:41:38.744Z,31.27
2018-11-20T20:44:40.678Z,31.07
2018-11-20T20:47:42.980Z,31.23
2018-11-20T20:50:34.013Z,33.17
2018-11-20T20:53:40.655Z,31.35
2018-11-20T20:56:42.383Z,31.35
2018-11-20T20:59:33.158Z,31.30
2018-11-20T21:02:41.571Z,31.55
2018-11-20T21:05:34.865Z,30.20
2018-11-20T21:08:25.730Z,30.17
2018-11-20T21:11:18.543Z,29.92
2018-11-20T21:14:14.829Z,29.20
2018-11-20T21:16:54.100Z,29.27
2018-11-20T21:19:59.563Z,28.15
2018-11-20T21:22:47.878Z,29.50
2018-11-20T21:25:37.023Z,29.35
2018-11-20T21:28:28.917Z,31.60
2018-11-20T21:31:21.390Z,30.47
2018-11-20T21:34:29.102Z,30.83
2018-11-20T21:37:17.710Z,31.20
2018-11-20T21:40:15.518Z,31.67
2018-11-20T21:43:04.655Z,32.07
2018-11-20T21:46:06.278Z,32.15
2018-11-20T21:49:10.960Z,33.20
2018-11-20T21:51:57.849Z,32.70
2018-11-20T21:54:44.934Z,32.98
2018-11-20T21:57:48.401Z,33.95
2018-11-20T22:01:10.883Z,35.38
2018-11-20T22:04:07.983Z,36.35
2018-11-20T22:07:08.026Z,37.78
2018-11-20T22:09:54.799Z,37.00
2018-11-20T22:12:45.569Z,37.40
2018-11-20T22:15:26.882Z,38.35
2018-11-20T22:18:29.877Z,39.00
2018-11-20T22:21:16.804Z,40.75
2018-11-20T22:24:10.693Z,40.25
2018-11-20T22:27:07.989Z,40.10
2018-11-20T22:30:05.874Z,40.48
2018-11-20T22:33:09.053Z,40.45
2018-11-20T22:35:55.945Z,41.23
2018-11-20T22:38:50.004Z,42.88
2018-11-20T22:41:47.097Z,42.50
2018-11-20T22:44:40.893Z,41.88
2018-11-20T22:47:34.759Z,44.88
2018-11-20T22:50:28.403Z,45.80
2018-11-20T22:53:28.587Z,43.35
2018-11-20T22:56:11.797Z,43.55
2018-11-20T22:59:02.515Z,42.83
2018-11-20T23:01:53.263Z,43.85
2018-11-20T23:05:02.614Z,43.73
2018-11-20T23:07:45.763Z,41.75
2018-11-20T23:10:16.701Z,43.90
2018-11-20T23:12:45.847Z,43.43
2018-11-20T23:15:15.598Z,42.60
2018-11-20T23:17:44.574Z,42.03
2018-11-20T23:20:14.071Z,42.58
2018-11-20T23:22:43.354Z,41.80
2018-11-20T23:25:13.396Z,43.90
2018-11-20T23:27:42.462Z,43.35
2018-11-20T23:30:13.337Z,42.70
2018-11-20T23:32:42.628Z,45.52
2018-11-20T23:35:12.512Z,45.10
2018-11-20T23:37:42.120Z,43.68
2018-11-20T23:40:12.256Z,43.55
2018-11-20T23:42:41.220Z,45.20
2018-11-20T23:45:12.902Z,44.95
2018-11-20T23:47:41.847Z,46.00
2018-11-20T23:50:12.294Z,45.00
2018-11-20T23:52:41.428Z,46.00
2018-11-20T23:55:12.544Z,45.55
2018-11-20T23:57:41.755Z,45.83
